createdAt,value
2019-03-11T00:00:17.963Z,3.95
2019-03-11T00:02:46.426Z,3.72
2019-03-11T00:05:14.805Z,3.98
2019-03-11T00:07:44.952Z,3.75
2019-03-11T00:10:13.457Z,3.58
2019-03-11T00:12:41.880Z,3.47
2019-03-11T00:15:10.257Z,5.70
2019-03-11T00:17:38.876Z,9.48
2019-03-11T00:20:09.265Z,5.12
2019-03-11T00:22:37.680Z,6.30
2019-03-11T00:25:07.085Z,8.50
2019-03-11T00:27:35.533Z,9.35
2019-03-11T00:30:11.933Z,7.12
2019-03-11T00:32:40.311Z,7.00
2019-03-11T00:35:08.775Z,7.55
2019-03-11T00:37:37.206Z,9.83
2019-03-11T00:40:11.378Z,8.25
2019-03-11T00:42:39.867Z,7.35
2019-03-11T00:45:10.814Z,7.72
2019-03-11T00:47:39.235Z,7.75
2019-03-11T00:50:09.917Z,8.95
2019-03-11T00:52:38.353Z,8.85
2019-03-11T00:55:09.070Z,8.08
2019-03-11T00:57:37.523Z,8.10
2019-03-11T01:00:09.189Z,6.05
2019-03-11T01:02:37.585Z,6.85
2019-03-11T01:05:06.025Z,7.08
2019-03-11T01:07:34.465Z,6.45
2019-03-11T01:10:03.366Z,7.15
2019-03-11T01:12:31.785Z,8.28
2019-03-11T01:15:00.360Z,5.87
2019-03-11T01:17:28.865Z,6.80
2019-03-11T01:19:57.354Z,7.70
2019-03-11T01:22:25.786Z,8.03
2019-03-11T01:24:54.316Z,7.35
2019-03-11T01:27:22.736Z,7.80
2019-03-11T01:29:51.180Z,7.05
2019-03-11T01:32:19.578Z,6.80
2019-03-11T01:34:48.010Z,6.80
2019-03-11T01:37:16.489Z,6.12
2019-03-11T01:39:44.855Z,6.15
2019-03-11T01:42:13.248Z,5.28
2019-03-11T01:44:41.642Z,5.28
2019-03-11T01:47:10.129Z,5.30
2019-03-11T01:49:38.698Z,5.55
2019-03-11T01:52:07.181Z,4.78
2019-03-11T01:54:35.612Z,4.55
2019-03-11T01:57:04.111Z,4.12
2019-03-11T01:59:32.602Z,4.10
2019-03-11T02:02:01.054Z,5.62
2019-03-11T02:04:29.473Z,6.62
2019-03-11T02:06:57.890Z,8.90
2019-03-11T02:09:26.322Z,6.75
2019-03-11T02:11:54.735Z,6.05
2019-03-11T02:14:23.313Z,6.83
2019-03-11T02:16:51.723Z,5.45
2019-03-11T02:19:20.102Z,4.50
2019-03-11T02:21:48.561Z,4.22
2019-03-11T02:24:16.986Z,4.47
2019-03-11T02:26:45.418Z,4.03
2019-03-11T02:29:13.838Z,3.25
2019-03-11T02:31:42.254Z,4.10
2019-03-11T02:34:10.643Z,4.05
2019-03-11T02:36:39.190Z,3.35
2019-03-11T02:39:07.720Z,3.92
2019-03-11T02:41:36.126Z,4.10
2019-03-11T02:44:04.613Z,3.83
2019-03-11T02:46:33.165Z,3.02
2019-03-11T02:49:01.585Z,4.67
2019-03-11T02:51:30.106Z,3.98
2019-03-11T02:53:58.517Z,3.62
2019-03-11T02:56:26.902Z,4.70
2019-03-11T02:58:55.464Z,3.42
2019-03-11T03:01:34.723Z,3.52
2019-03-11T03:04:04.790Z,2.12
2019-03-11T03:06:33.295Z,3.20
2019-03-11T03:09:01.734Z,2.55
2019-03-11T03:11:30.123Z,2.85
2019-03-11T03:13:58.539Z,2.60
2019-03-11T03:16:26.959Z,2.95
2019-03-11T03:18:55.529Z,2.40
2019-03-11T03:21:24.022Z,2.50
2019-03-11T03:23:52.639Z,3.83
2019-03-11T03:26:21.307Z,3.47
2019-03-11T03:28:49.758Z,3.98
2019-03-11T03:31:18.109Z,3.85
2019-03-11T03:33:46.577Z,3.10
2019-03-11T03:36:14.959Z,3.35
2019-03-11T03:38:43.470Z,1.92
2019-03-11T03:41:11.878Z,2.10
2019-03-11T03:43:40.246Z,1.90
2019-03-11T03:46:18.563Z,2.65
2019-03-11T03:48:39.156Z,2.35
2019-03-11T03:51:07.707Z,2.45
2019-03-11T03:53:36.128Z,2.17
2019-03-11T03:56:04.739Z,2.75
2019-03-11T03:58:33.246Z,3.15
2019-03-11T04:01:01.649Z,2.40
2019-03-11T04:03:30.111Z,2.42
2019-03-11T04:05:58.529Z,2.70
2019-03-11T04:08:26.950Z,2.22
2019-03-11T04:10:55.403Z,2.37
2019-03-11T04:13:23.850Z,2.67
2019-03-11T04:15:52.253Z,2.62
2019-03-11T04:18:20.647Z,2.30
2019-03-11T04:20:49.039Z,2.45
2019-03-11T04:23:17.461Z,2.17
2019-03-11T04:25:46.000Z,1.95
2019-03-11T04:28:14.502Z,2.35
2019-03-11T04:30:42.922Z,2.45
2019-03-11T04:33:11.383Z,3.00
2019-03-11T04:35:39.768Z,3.80
2019-03-11T04:38:08.247Z,4.00
2019-03-11T04:40:36.707Z,4.78
2019-03-11T04:43:05.085Z,3.47
2019-03-11T04:45:33.534Z,3.85
2019-03-11T04:48:01.975Z,4.95
2019-03-11T04:50:30.556Z,3.83
2019-03-11T04:52:59.056Z,4.03
2019-03-11T04:55:27.468Z,4.12
2019-03-11T04:57:56.385Z,3.58
2019-03-11T05:00:29.696Z,3.12
2019-03-11T05:02:58.199Z,3.83
2019-03-11T05:05:26.639Z,4.62
2019-03-11T05:07:55.032Z,6.08
2019-03-11T05:10:23.453Z,7.28
2019-03-11T05:12:51.847Z,10.00
2019-03-11T05:15:20.277Z,9.58
2019-03-11T05:17:48.996Z,11.50
2019-03-11T05:20:17.582Z,10.08
2019-03-11T05:22:46.052Z,13.38
2019-03-11T05:25:15.301Z,16.30
2019-03-11T05:27:43.874Z,23.45
2019-03-11T05:30:18.424Z,17.65
2019-03-11T05:32:46.901Z,14.55
2019-03-11T05:35:15.510Z,12.88
2019-03-11T05:37:43.880Z,10.48
2019-03-11T05:40:13.662Z,11.20
2019-03-11T05:42:42.043Z,8.90
2019-03-11T05:45:12.502Z,11.22
2019-03-11T05:47:40.962Z,11.12
2019-03-11T05:50:14.243Z,7.58
2019-03-11T05:52:42.661Z,5.83
2019-03-11T05:55:12.043Z,6.12
2019-03-11T05:57:40.438Z,6.28
2019-03-11T06:00:19.004Z,4.60
2019-03-11T06:02:47.341Z,4.45
2019-03-11T06:05:15.743Z,4.37
2019-03-11T06:07:44.284Z,4.70
2019-03-11T06:10:14.154Z,4.87
2019-03-11T06:12:42.612Z,6.15
2019-03-11T06:15:12.914Z,3.62
2019-03-11T06:17:41.355Z,3.77
2019-03-11T06:20:22.156Z,4.25
2019-03-11T06:22:50.753Z,3.92
2019-03-11T06:25:19.230Z,4.08
2019-03-11T06:27:47.652Z,4.50
2019-03-11T06:30:16.108Z,4.70
2019-03-11T06:32:44.640Z,5.20
2019-03-11T06:35:13.210Z,5.67
2019-03-11T06:37:41.614Z,5.47
2019-03-11T06:40:11.673Z,7.05
2019-03-11T06:42:40.070Z,8.95
2019-03-11T06:45:10.235Z,7.15
2019-03-11T06:47:38.677Z,7.08
2019-03-11T06:50:12.139Z,6.92
2019-03-11T06:52:40.527Z,7.15
2019-03-11T06:55:10.060Z,6.22
2019-03-11T06:57:38.598Z,6.92
2019-03-11T07:00:18.330Z,7.28
2019-03-11T07:02:46.781Z,7.03
2019-03-11T07:05:20.289Z,5.53
2019-03-11T07:07:45.303Z,7.75
2019-03-11T07:10:14.982Z,9.83
2019-03-11T07:12:43.413Z,7.47
2019-03-11T07:15:14.156Z,6.70
2019-03-11T07:17:42.536Z,5.42
2019-03-11T07:20:13.903Z,7.00
2019-03-11T07:22:48.603Z,6.20
2019-03-11T07:25:17.066Z,5.25
2019-03-11T07:27:45.694Z,6.05
2019-03-11T07:30:20.481Z,5.70
2019-03-11T07:32:48.933Z,7.55
2019-03-11T07:35:17.546Z,5.35
2019-03-11T07:37:46.072Z,4.45
2019-03-11T07:40:15.647Z,5.12
2019-03-11T07:42:44.166Z,5.50
2019-03-11T07:45:14.638Z,5.40
2019-03-11T07:47:43.033Z,4.37
2019-03-11T07:50:13.561Z,4.15
2019-03-11T07:52:42.282Z,5.72
2019-03-11T07:55:13.181Z,5.50
2019-03-11T07:57:41.776Z,6.03
2019-03-11T08:00:17.582Z,3.80
2019-03-11T08:02:46.009Z,4.60
2019-03-11T08:05:14.476Z,4.87
2019-03-11T08:07:42.886Z,4.00
2019-03-11T08:10:14.012Z,4.55
2019-03-11T08:12:42.478Z,5.05
2019-03-11T08:15:14.858Z,4.90
2019-03-11T08:17:43.431Z,6.17
2019-03-11T08:20:13.161Z,4.75
2019-03-11T08:22:41.674Z,5.08
2019-03-11T08:25:12.457Z,4.85
2019-03-11T08:27:40.896Z,5.40
2019-03-11T08:30:15.544Z,5.00
2019-03-11T08:32:43.963Z,5.42
2019-03-11T08:35:12.428Z,5.10
2019-03-11T08:37:40.838Z,5.20
2019-03-11T08:40:14.532Z,3.85
2019-03-11T08:42:42.909Z,7.45
2019-03-11T08:45:16.367Z,5.40
2019-03-11T08:47:44.756Z,5.22
2019-03-11T08:50:16.453Z,5.10
2019-03-11T08:52:44.852Z,4.05
2019-03-11T08:55:13.516Z,3.87
2019-03-11T08:57:41.994Z,3.92
2019-03-11T09:00:16.667Z,3.22
2019-03-11T09:02:46.122Z,4.15
2019-03-11T09:05:14.540Z,2.70
2019-03-11T09:07:43.069Z,3.20
2019-03-11T09:10:15.383Z,2.22
2019-03-11T09:12:43.791Z,2.77
2019-03-11T09:15:13.944Z,2.20
2019-03-11T09:17:42.380Z,3.12
2019-03-11T09:20:15.589Z,3.17
2019-03-11T09:22:44.066Z,2.90
2019-03-11T09:25:20.426Z,2.77
2019-03-11T09:27:50.849Z,3.47
2019-03-11T09:30:21.340Z,3.65
2019-03-11T09:32:49.747Z,3.20
2019-03-11T09:35:18.293Z,3.95
2019-03-11T09:37:46.730Z,2.77
2019-03-11T09:40:19.618Z,2.27
2019-03-11T09:42:48.119Z,3.12
2019-03-11T09:45:18.759Z,3.47
2019-03-11T09:47:47.561Z,2.37
2019-03-11T09:50:16.278Z,2.30
2019-03-11T09:52:44.726Z,2.50
2019-03-11T09:55:16.364Z,3.00
2019-03-11T09:57:44.779Z,4.78
2019-03-11T10:00:22.096Z,2.75
2019-03-11T10:02:52.835Z,2.50
2019-03-11T10:05:20.904Z,3.67
2019-03-11T10:07:49.330Z,4.30
2019-03-11T10:10:22.775Z,6.08
2019-03-11T10:12:51.286Z,3.77
2019-03-11T10:15:23.282Z,2.98
2019-03-11T10:17:51.682Z,4.85
2019-03-11T10:20:20.728Z,6.87
2019-03-11T10:22:49.368Z,4.35
2019-03-11T10:25:18.348Z,8.10
2019-03-11T10:27:46.753Z,5.10
2019-03-11T10:30:19.099Z,3.52
2019-03-11T10:32:47.627Z,3.10
2019-03-11T10:35:31.513Z,2.45
2019-03-11T10:37:47.186Z,2.27
2019-03-11T10:40:25.847Z,1.80
2019-03-11T10:42:54.329Z,2.15
2019-03-11T10:45:31.187Z,2.20
2019-03-11T10:47:52.924Z,2.02
2019-03-11T10:50:21.563Z,2.30
2019-03-11T10:52:50.056Z,2.15
2019-03-11T10:55:23.883Z,2.00
2019-03-11T10:57:52.552Z,4.53
2019-03-11T11:00:29.318Z,3.60
2019-03-11T11:02:57.712Z,3.00
2019-03-11T11:05:26.166Z,2.15
2019-03-11T11:07:54.680Z,2.33
2019-03-11T11:10:23.086Z,2.10
2019-03-11T11:12:51.545Z,3.15
2019-03-11T11:15:26.603Z,2.00
2019-03-11T11:17:55.149Z,2.00
2019-03-11T11:20:24.088Z,3.22
2019-03-11T11:22:53.544Z,3.42
2019-03-11T11:25:25.907Z,1.50
2019-03-11T11:27:54.371Z,1.70
2019-03-11T11:30:24.139Z,1.42
2019-03-11T11:32:52.571Z,3.35
2019-03-11T11:35:21.105Z,4.65
2019-03-11T11:37:49.754Z,3.35
2019-03-11T11:40:26.266Z,4.03
2019-03-11T11:42:54.673Z,2.30
2019-03-11T11:45:25.190Z,3.12
2019-03-11T11:47:53.596Z,3.80
2019-03-11T11:50:23.162Z,3.10
2019-03-11T11:52:51.723Z,3.08
2019-03-11T11:55:21.193Z,1.80
2019-03-11T11:57:49.742Z,3.25
2019-03-11T12:00:23.762Z,3.40
2019-03-11T12:02:52.358Z,3.85
2019-03-11T12:05:20.923Z,2.00
2019-03-11T12:07:49.347Z,2.27
2019-03-11T12:10:23.876Z,8.53
2019-03-11T12:12:52.391Z,9.28
2019-03-11T12:15:20.839Z,3.98
2019-03-11T12:17:49.274Z,6.45
2019-03-11T12:20:31.489Z,4.87
2019-03-11T12:23:00.042Z,3.65
2019-03-11T12:25:28.462Z,1.80
2019-03-11T12:27:58.172Z,1.92
2019-03-11T12:30:30.675Z,1.92
2019-03-11T12:32:59.462Z,1.92
2019-03-11T12:35:28.200Z,4.45
2019-03-11T12:37:56.972Z,12.23
2019-03-11T12:40:25.311Z,13.80
2019-03-11T12:42:53.803Z,3.45
2019-03-11T12:45:23.376Z,5.40
2019-03-11T12:47:51.859Z,3.50
2019-03-11T12:50:24.674Z,3.30
2019-03-11T12:52:53.182Z,4.00
2019-03-11T12:55:21.939Z,4.40
2019-03-11T12:57:50.834Z,2.90
2019-03-11T13:00:21.234Z,2.10
2019-03-11T13:02:49.701Z,3.62
2019-03-11T13:05:18.291Z,2.72
2019-03-11T13:07:46.701Z,2.40
2019-03-11T13:10:17.361Z,2.20
2019-03-11T13:12:45.771Z,1.90
2019-03-11T13:15:15.421Z,1.77
2019-03-11T13:17:43.914Z,2.52
2019-03-11T13:20:18.281Z,1.85
2019-03-11T13:22:48.989Z,2.10
2019-03-11T13:25:17.509Z,2.58
2019-03-11T13:27:45.909Z,3.55
2019-03-11T13:30:15.251Z,2.67
2019-03-11T13:32:43.664Z,1.75
2019-03-11T13:35:12.724Z,2.10
2019-03-11T13:37:41.113Z,2.33
2019-03-11T13:40:13.834Z,2.77
2019-03-11T13:42:42.273Z,2.62
2019-03-11T13:45:15.590Z,2.90
2019-03-11T13:47:44.146Z,3.30
2019-03-11T13:50:17.421Z,3.77
2019-03-11T13:52:45.898Z,3.33
2019-03-11T13:55:15.509Z,2.75
2019-03-11T13:57:44.125Z,4.42
2019-03-11T14:00:18.276Z,2.15
2019-03-11T14:02:46.684Z,3.25
2019-03-11T14:05:15.098Z,2.17
2019-03-11T14:07:43.626Z,1.90
2019-03-11T14:10:16.056Z,1.82
2019-03-11T14:12:44.909Z,2.20
2019-03-11T14:15:17.607Z,2.25
2019-03-11T14:20:14.585Z,2.55
2019-03-11T14:22:42.986Z,2.70
2019-03-11T14:25:13.469Z,2.60
2019-03-11T14:27:41.907Z,2.55
2019-03-11T14:30:13.215Z,2.35
2019-03-11T14:32:41.702Z,3.90
2019-03-11T14:35:11.454Z,5.53
2019-03-11T14:37:39.924Z,10.95
2019-03-11T14:40:11.003Z,21.90
2019-03-11T14:42:39.419Z,22.05
2019-03-11T14:45:11.085Z,21.25
2019-03-11T14:47:39.572Z,12.63
2019-03-11T14:50:09.835Z,14.23
2019-03-11T14:52:38.255Z,22.95
2019-03-11T14:55:08.682Z,12.23
2019-03-11T14:57:37.167Z,7.28
2019-03-11T15:00:12.348Z,3.22
2019-03-11T15:02:55.893Z,3.90
2019-03-11T15:05:24.475Z,3.00
2019-03-11T15:07:52.917Z,5.00
2019-03-11T15:10:21.317Z,4.10
2019-03-11T15:12:49.738Z,4.12
2019-03-11T15:15:24.641Z,3.17
2019-03-11T15:17:53.118Z,3.58
2019-03-11T15:20:21.762Z,4.00
2019-03-11T15:22:50.350Z,2.87
2019-03-11T15:25:18.918Z,4.47
2019-03-11T15:27:47.912Z,3.95
2019-03-11T15:30:21.362Z,4.72
2019-03-11T15:32:50.019Z,7.00
2019-03-11T15:35:18.491Z,5.05
2019-03-11T15:37:46.966Z,5.30
2019-03-11T15:40:18.937Z,6.08
2019-03-11T15:42:47.447Z,4.78
2019-03-11T15:45:17.024Z,5.45
2019-03-11T15:47:45.472Z,5.92
2019-03-11T15:50:28.605Z,6.55
2019-03-11T15:52:57.190Z,7.62
2019-03-11T15:55:25.661Z,6.53
2019-03-11T15:57:54.171Z,3.95
2019-03-11T16:00:23.354Z,8.13
2019-03-11T16:02:51.740Z,7.35
2019-03-11T16:05:21.277Z,15.85
2019-03-11T16:07:50.244Z,9.05
2019-03-11T16:10:19.138Z,6.20
2019-03-11T16:12:47.671Z,5.97
2019-03-11T16:15:17.277Z,5.22
2019-03-11T16:17:45.716Z,5.50
2019-03-11T16:20:20.204Z,4.47
2019-03-11T16:22:48.938Z,4.53
2019-03-11T16:25:17.253Z,4.53
2019-03-11T16:27:45.677Z,6.35
2019-03-11T16:30:18.944Z,4.85
2019-03-11T16:32:58.435Z,5.05
2019-03-11T16:35:18.091Z,5.47
2019-03-11T16:37:46.642Z,6.15
2019-03-11T16:40:15.236Z,5.75
2019-03-11T16:42:43.701Z,7.55
2019-03-11T16:45:13.556Z,9.48
2019-03-11T16:47:41.967Z,7.33
2019-03-11T16:50:21.454Z,5.42
2019-03-11T16:52:49.860Z,6.37
2019-03-11T16:55:24.954Z,8.28
2019-03-11T16:57:53.918Z,10.08
2019-03-11T17:00:24.303Z,7.80
2019-03-11T17:02:52.734Z,5.20
2019-03-11T17:05:21.214Z,7.35
2019-03-11T17:07:49.721Z,11.73
2019-03-11T17:10:20.472Z,15.85
2019-03-11T17:12:48.874Z,15.35
2019-03-11T17:15:17.287Z,6.85
2019-03-11T17:17:45.744Z,8.95
2019-03-11T17:20:18.433Z,6.25
2019-03-11T17:22:46.825Z,7.28
2019-03-11T17:25:15.733Z,10.05
2019-03-11T17:27:44.167Z,5.50
2019-03-11T17:30:20.664Z,17.20
2019-03-11T17:32:50.701Z,9.23
2019-03-11T17:35:19.261Z,8.35
2019-03-11T17:37:47.798Z,8.30
2019-03-11T17:40:18.798Z,11.65
2019-03-11T17:42:47.249Z,9.35
2019-03-11T17:45:16.332Z,10.25
2019-03-11T17:47:44.901Z,7.90
2019-03-11T17:50:17.008Z,6.67
2019-03-11T17:52:45.631Z,6.92
2019-03-11T17:55:16.300Z,6.35
2019-03-11T17:57:44.882Z,6.65
2019-03-11T18:00:20.295Z,6.40
2019-03-11T18:02:48.684Z,7.33
2019-03-11T18:05:17.351Z,5.05
2019-03-11T18:07:46.098Z,4.05
2019-03-11T18:10:23.508Z,4.60
2019-03-11T18:12:51.450Z,4.20
2019-03-11T18:15:19.903Z,5.17
2019-03-11T18:17:48.317Z,4.03
2019-03-11T18:20:20.225Z,3.67
2019-03-11T18:22:48.686Z,6.80
2019-03-11T18:25:18.146Z,7.55
2019-03-11T18:27:46.735Z,8.08
2019-03-11T18:30:20.256Z,5.95
2019-03-11T18:32:48.638Z,4.65
2019-03-11T18:35:17.237Z,3.95
2019-03-11T18:37:45.847Z,7.12
2019-03-11T18:40:16.802Z,3.72
2019-03-11T18:42:45.196Z,3.85
2019-03-11T18:45:14.102Z,3.85
2019-03-11T18:47:42.581Z,4.08
2019-03-11T18:50:19.462Z,4.87
2019-03-11T18:52:47.962Z,4.50
2019-03-11T18:55:16.404Z,9.73
2019-03-11T18:57:44.953Z,17.02
2019-03-11T19:00:22.405Z,9.05
2019-03-11T19:02:51.052Z,9.90
2019-03-11T19:05:23.813Z,7.67
2019-03-11T19:07:54.903Z,6.12
2019-03-11T19:10:22.207Z,6.70
2019-03-11T19:12:50.839Z,5.37
2019-03-11T19:15:21.495Z,5.28
2019-03-11T19:17:49.915Z,6.15
2019-03-11T19:20:19.897Z,4.15
2019-03-11T19:22:48.356Z,4.60
2019-03-11T19:25:17.274Z,4.05
2019-03-11T19:27:45.811Z,6.00
2019-03-11T19:30:20.361Z,3.40
2019-03-11T19:32:48.912Z,3.27
2019-03-11T19:35:18.102Z,4.03
2019-03-11T19:37:46.592Z,4.08
2019-03-11T19:40:19.852Z,5.42
2019-03-11T19:42:48.269Z,4.90
2019-03-11T19:45:17.016Z,5.15
2019-03-11T19:47:45.574Z,5.65
2019-03-11T19:50:15.223Z,10.38
2019-03-11T19:52:43.693Z,9.80
2019-03-11T19:55:12.249Z,6.35
2019-03-11T19:57:40.655Z,4.85
2019-03-11T20:00:18.213Z,4.70
2019-03-11T20:02:46.605Z,4.55
2019-03-11T20:05:18.185Z,5.42
2019-03-11T20:07:46.665Z,6.03
2019-03-11T20:10:15.286Z,4.83
2019-03-11T20:12:44.050Z,3.80
2019-03-11T20:15:13.306Z,25.20
2019-03-11T20:17:41.937Z,10.55
2019-03-11T20:20:13.071Z,21.52
2019-03-11T20:22:41.526Z,21.73
2019-03-11T20:25:15.322Z,15.65
2019-03-11T20:27:43.988Z,8.30
2019-03-11T20:30:17.689Z,24.10
2019-03-11T20:32:46.145Z,5.83
2019-03-11T20:35:17.263Z,6.50
2019-03-11T20:37:45.009Z,6.60
2019-03-11T20:40:13.686Z,11.53
2019-03-11T20:42:42.111Z,6.22
2019-03-11T20:45:13.238Z,5.97
2019-03-11T20:47:42.653Z,3.87
2019-03-11T20:50:13.045Z,4.15
2019-03-11T20:52:41.467Z,5.30
2019-03-11T20:55:15.116Z,3.87
2019-03-11T20:57:43.549Z,9.18
2019-03-11T21:00:20.366Z,8.38
2019-03-11T21:02:49.000Z,4.55
2019-03-11T21:05:38.338Z,5.47
2019-03-11T21:08:06.877Z,6.30
2019-03-11T21:10:35.390Z,6.15
2019-03-11T21:13:04.042Z,7.25
2019-03-11T21:15:32.535Z,5.75
2019-03-11T21:18:01.040Z,5.10
2019-03-11T21:20:29.525Z,5.00
2019-03-11T21:22:57.873Z,5.85
2019-03-11T21:25:26.476Z,4.25
2019-03-11T21:27:54.855Z,4.50
2019-03-11T21:30:24.717Z,5.15
2019-03-11T21:32:53.250Z,6.40
2019-03-11T21:35:21.900Z,6.22
2019-03-11T21:37:50.577Z,4.78
2019-03-11T21:40:20.616Z,4.55
2019-03-11T21:42:49.170Z,5.40
2019-03-11T21:45:17.994Z,5.78
2019-03-11T21:47:46.600Z,4.55
2019-03-11T21:50:17.588Z,4.70
2019-03-11T21:52:46.040Z,5.28
2019-03-11T21:55:14.435Z,6.10
2019-03-11T21:57:42.926Z,4.87
2019-03-11T22:00:28.402Z,5.15
2019-03-11T22:02:48.190Z,5.12
2019-03-11T22:05:16.680Z,6.53
2019-03-11T22:07:45.049Z,6.08
2019-03-11T22:10:17.423Z,6.45
2019-03-11T22:15:16.053Z,6.60
2019-03-11T22:17:44.516Z,5.75
2019-03-11T22:20:16.748Z,7.15
2019-03-11T22:22:45.140Z,6.20
2019-03-11T22:25:18.277Z,6.42
2019-03-11T22:27:46.698Z,7.50
2019-03-11T22:30:22.232Z,8.83
2019-03-11T22:32:50.653Z,6.83
2019-03-11T22:35:19.072Z,5.20
2019-03-11T22:37:47.508Z,6.47
2019-03-11T22:40:17.176Z,6.17
2019-03-11T22:42:45.789Z,6.40
2019-03-11T22:45:17.612Z,5.50
2019-03-11T22:47:46.085Z,6.70
2019-03-11T22:50:17.631Z,4.80
2019-03-11T22:52:44.611Z,5.53
2019-03-11T22:55:13.200Z,4.65
2019-03-11T22:57:41.580Z,5.62
2019-03-11T23:00:15.890Z,6.65
2019-03-11T23:02:44.410Z,5.65
2019-03-11T23:05:12.794Z,5.97
2019-03-11T23:07:41.332Z,5.85
2019-03-11T23:10:09.735Z,5.53
2019-03-11T23:12:38.218Z,6.17
2019-03-11T23:15:07.919Z,4.65
2019-03-11T23:17:36.295Z,4.37
2019-03-11T23:20:06.770Z,5.72
2019-03-11T23:22:35.611Z,5.25
2019-03-11T23:25:05.853Z,5.17
2019-03-11T23:27:35.402Z,4.75
2019-03-11T23:30:06.648Z,4.65
2019-03-11T23:32:35.023Z,4.87
2019-03-11T23:35:03.841Z,3.95
2019-03-11T23:37:32.233Z,3.83
2019-03-11T23:40:00.898Z,4.28
2019-03-11T23:42:29.431Z,4.75
2019-03-11T23:44:57.841Z,4.53
2019-03-11T23:47:26.276Z,5.05
2019-03-11T23:49:54.734Z,5.58
2019-03-11T23:52:23.158Z,5.03
2019-03-11T23:54:51.595Z,4.50
2019-03-11T23:57:20.030Z,4.85
2019-03-11T23:59:48.446Z,4.70
